Time;durP1;ratioP1;P1;durP2;ratioP2;P2;SDS_P1;SDS_P2;PMS_P1;PMS_P2;Temp;Humidity;BMP_temperature;BMP_pressure;BME280_temperature;BME280_humidity;BME280_pressure;Samples;Min_cycle;Max_cycle;Signal;HPM_P1;HPM_P2
2022/03/21 14:26:40;;;;;;;13.75;8.35;;;;;;;;;;5109396;27;20675;-60
2022/03/21 14:29:07;;;;;;;10.70;6.15;;;;;;;;;;5108793;28;20036;-60
2022/03/21 14:31:34;;;;;;;10.07;6.22;;;;;;;;;;5109366;28;20111;-60
2022/03/21 14:34:01;;;;;;;13.90;8.00;;;;;;;;;;5109203;28;20039;-61
2022/03/21 14:36:27;;;;;;;11.75;6.55;;;;;;;;;;5108673;28;20031;-60
2022/03/21 14:38:52;;;;;;;15.13;8.25;;;;;;;;;;5108978;28;20487;-61
2022/03/21 14:41:20;;;;;;;14.88;8.50;;;;;;;;;;5108796;28;20024;-60
2022/03/21 14:43:46;;;;;;;14.27;8.15;;;;;;;;;;5109073;28;20170;-65
2022/03/21 14:46:12;;;;;;;13.77;7.10;;;;;;;;;;5108375;28;20126;-61
2022/03/21 14:48:38;;;;;;;12.45;7.63;;;;;;;;;;5109163;28;20365;-61
2022/03/21 14:51:05;;;;;;;9.88;6.18;;;;;;;;;;5108741;28;20103;-61
2022/03/21 14:53:31;;;;;;;13.80;7.63;;;;;;;;;;5109068;28;20023;-62
2022/03/21 14:56:00;;;;;;;14.77;7.72;;;;;;;;;;5108823;28;20020;-61
2022/03/21 14:58:27;;;;;;;15.90;8.13;;;;;;;;;;5108589;28;20153;-61
2022/03/21 15:00:53;;;;;;;10.50;6.32;;;;;;;;;;5108391;28;20439;-60
2022/03/21 15:03:19;;;;;;;14.15;7.00;;;;;;;;;;5108224;28;20192;-60
2022/03/21 15:05:45;;;;;;;14.02;7.38;;;;;;;;;;5108433;28;20027;-61
2022/03/21 15:08:11;;;;;;;12.77;7.30;;;;;;;;;;5090224;28;20377;-60
2022/03/21 15:10:37;;;;;;;10.85;5.82;;;;;;;;;;5108695;28;20031;-64
2022/03/21 15:13:11;;;;;;;14.65;7.55;;;;;;;;;;5095774;28;20024;-63
2022/03/21 15:15:37;;;;;;;12.38;6.00;;;;;;;;;;5089111;28;20423;-62
2022/03/21 15:18:03;;;;;;;11.65;6.85;;;;;;;;;;5088896;28;20107;-64
2022/03/21 15:20:29;;;;;;;12.77;7.32;;;;;;;;;;5088969;28;20104;-63
2022/03/21 15:22:55;;;;;;;13.63;6.85;;;;;;;;;;5089084;28;20097;-62
2022/03/21 15:25:21;;;;;;;11.45;7.28;;;;;;;;;;5088576;28;20076;-61
2022/03/21 15:27:47;;;;;;;9.63;5.85;;;;;;;;;;5088664;28;20024;-64
2022/03/21 15:30:13;;;;;;;10.23;5.78;;;;;;;;;;5088462;28;20405;-64
2022/03/21 15:32:40;;;;;;;10.68;5.63;;;;;;;;;;5088775;28;20036;-61
2022/03/21 15:35:07;;;;;;;12.80;6.93;;;;;;;;;;5088738;28;20326;-64
2022/03/21 15:43:02;;;;;;;16.15;6.82;;;;;;;;;;5075342;28;20034;-63
2022/03/21 15:45:27;;;;;;;12.13;7.07;;;;;;;;;;5075142;28;20032;-63
2022/03/21 15:47:54;;;;;;;13.88;7.55;;;;;;;;;;5074949;28;20470;-63
2022/03/21 15:50:19;;;;;;;18.48;7.93;;;;;;;;;;5074996;28;20052;-64
2022/03/21 15:52:47;;;;;;;10.55;5.82;;;;;;;;;;5075012;28;20141;-64
2022/03/21 15:55:14;;;;;;;13.18;6.95;;;;;;;;;;5074810;28;20025;-65
2022/03/21 15:57:40;;;;;;;17.77;8.65;;;;;;;;;;5074779;28;20461;-63
2022/03/21 16:00:14;;;;;;;13.10;7.85;;;;;;;;;;5074807;28;20025;-63
2022/03/21 16:02:41;;;;;;;15.77;8.45;;;;;;;;;;5074883;28;20116;-64
2022/03/21 16:05:09;;;;;;;13.77;7.63;;;;;;;;;;5074221;28;20381;-63
2022/03/21 16:07:34;;;;;;;15.57;7.43;;;;;;;;;;5074756;28;20025;-62
2022/03/21 16:10:00;;;;;;;11.70;6.30;;;;;;;;;;5074616;28;20070;-65
2022/03/21 16:12:25;;;;;;;16.85;7.80;;;;;;;;;;5074334;28;20055;-61
2022/03/21 16:14:51;;;;;;;19.05;8.88;;;;;;;;;;5074690;28;20034;-62
2022/03/21 16:17:16;;;;;;;16.67;8.18;;;;;;;;;;5074528;28;20024;-64
2022/03/21 16:19:42;;;;;;;13.88;7.88;;;;;;;;;;5086708;28;20028;-64
2022/03/21 16:22:07;;;;;;;12.25;7.32;;;;;;;;;;5092965;28;20031;-63
2022/03/21 16:24:33;;;;;;;22.23;7.82;;;;;;;;;;5093471;28;20500;-64
2022/03/21 16:26:58;;;;;;;12.38;6.90;;;;;;;;;;5092844;28;20024;-61
2022/03/21 16:29:24;;;;;;;14.90;7.13;;;;;;;;;;5093715;28;20076;-63
2022/03/21 16:31:49;;;;;;;13.82;7.78;;;;;;;;;;5088682;28;20058;-63
2022/03/21 16:34:15;;;;;;;12.73;7.60;;;;;;;;;;5093139;28;20107;-62
2022/03/21 16:36:41;;;;;;;6.68;3.95;;;;;;;;;;5093418;28;20119;-64
2022/03/21 16:39:11;;;;;;;15.20;7.13;;;;;;;;;;5093105;28;20093;-64
2022/03/21 16:41:37;;;;;;;12.45;6.13;;;;;;;;;;5093267;28;20035;-64
2022/03/21 16:44:02;;;;;;;15.05;7.75;;;;;;;;;;5092919;28;20055;-62
2022/03/21 16:46:28;;;;;;;14.02;7.60;;;;;;;;;;5093223;28;20070;-61
2022/03/21 16:48:54;;;;;;;13.18;6.82;;;;;;;;;;5092032;28;20024;-64
2022/03/21 16:51:23;;;;;;;13.43;6.90;;;;;;;;;;5092869;28;20066;-63
2022/03/21 16:53:50;;;;;;;14.10;8.30;;;;;;;;;;5093024;28;20189;-63
2022/03/21 16:56:17;;;;;;;17.80;8.32;;;;;;;;;;5092605;28;20403;-62
2022/03/21 16:58:44;;;;;;;15.93;8.05;;;;;;;;;;5092966;28;20098;-62
2022/03/21 17:01:10;;;;;;;15.10;8.52;;;;;;;;;;5092631;28;20373;-64
2022/03/21 17:03:36;;;;;;;15.57;8.43;;;;;;;;;;5093109;28;20039;-61
2022/03/21 17:06:02;;;;;;;17.60;9.10;;;;;;;;;;5092355;28;20031;-64
2022/03/21 17:08:29;;;;;;;13.77;7.78;;;;;;;;;;5092966;28;20442;-62
2022/03/21 17:10:56;;;;;;;17.65;8.85;;;;;;;;;;5092403;28;20353;-61
2022/03/21 17:13:22;;;;;;;15.45;8.45;;;;;;;;;;5108421;28;20024;-62
2022/03/21 17:15:48;;;;;;;11.70;7.13;;;;;;;;;;5092491;28;20533;-62
2022/03/21 17:23:51;;;;;;;17.02;8.60;;;;;;;;;;5088577;28;20047;-64
2022/03/21 17:26:18;;;;;;;14.27;7.82;;;;;;;;;;5091783;28;20503;-63
2022/03/21 17:28:45;;;;;;;18.13;10.32;;;;;;;;;;5092419;28;20028;-62
2022/03/21 17:31:11;;;;;;;25.65;11.98;;;;;;;;;;5092027;28;20020;-63
2022/03/21 17:33:36;;;;;;;24.65;12.60;;;;;;;;;;5092347;28;20365;-64
2022/03/21 17:36:02;;;;;;;25.27;12.13;;;;;;;;;;5091747;28;20039;-63
2022/03/21 17:38:31;;;;;;;21.60;11.45;;;;;;;;;;5091534;28;20031;-63
2022/03/21 17:40:58;;;;;;;21.67;10.43;;;;;;;;;;5091243;28;20046;-63
2022/03/21 17:43:26;;;;;;;24.10;10.32;;;;;;;;;;5092138;28;20024;-65
2022/03/21 17:45:52;;;;;;;22.75;9.95;;;;;;;;;;5091743;28;20107;-62
2022/03/21 17:48:17;;;;;;;20.98;10.25;;;;;;;;;;5091694;28;20110;-61
2022/03/21 17:50:43;;;;;;;17.63;8.70;;;;;;;;;;5091517;28;20770;-63
2022/03/21 17:53:29;;;;;;;19.00;9.13;;;;;;;;;;5091154;28;20457;-63
2022/03/21 17:56:05;;;;;;;18.35;9.70;;;;;;;;;;5091697;28;20488;-61
2022/03/21 17:58:32;;;;;;;18.90;8.90;;;;;;;;;;5085142;28;20020;-62
2022/03/21 18:00:58;;;;;;;17.23;8.63;;;;;;;;;;5091292;28;20065;-64
2022/03/21 18:03:24;;;;;;;18.85;9.30;;;;;;;;;;5091849;28;20020;-64
2022/03/21 18:05:50;;;;;;;16.33;9.20;;;;;;;;;;5091586;28;20061;-64
2022/03/21 18:08:16;;;;;;;16.33;8.57;;;;;;;;;;5091252;28;20113;-66
2022/03/21 18:10:42;;;;;;;16.65;9.32;;;;;;;;;;5091752;28;20487;-64
2022/03/21 18:13:08;;;;;;;19.35;9.85;;;;;;;;;;5091307;28;20028;-65
2022/03/21 18:15:33;;;;;;;18.65;9.77;;;;;;;;;;5091901;28;20052;-65
2022/03/21 18:17:59;;;;;;;17.67;9.60;;;;;;;;;;5091394;28;20083;-65
2022/03/21 18:20:32;;;;;;;23.08;9.88;;;;;;;;;;5091766;28;20020;-64
2022/03/21 18:22:58;;;;;;;19.70;11.27;;;;;;;;;;5091261;28;20027;-64
2022/03/21 18:25:23;;;;;;;19.73;9.93;;;;;;;;;;5091438;28;20048;-64
2022/03/21 18:27:49;;;;;;;23.15;11.27;;;;;;;;;;5091620;28;20055;-64
2022/03/21 18:30:14;;;;;;;22.20;11.45;;;;;;;;;;5091277;28;20021;-65
2022/03/21 18:32:40;;;;;;;20.88;11.00;;;;;;;;;;5091813;28;20472;-64
2022/03/21 18:35:05;;;;;;;23.67;11.27;;;;;;;;;;5091353;28;20020;-64
2022/03/21 18:37:31;;;;;;;23.10;11.20;;;;;;;;;;5091525;28;20094;-65
2022/03/21 18:39:56;;;;;;;24.83;12.93;;;;;;;;;;5091112;28;20036;-64
2022/03/21 18:42:22;;;;;;;25.65;12.45;;;;;;;;;;5091670;28;20482;-64
2022/03/21 18:44:50;;;;;;;22.63;11.38;;;;;;;;;;5091280;28;20028;-64
2022/03/21 18:47:16;;;;;;;24.60;12.15;;;;;;;;;;5091244;28;20036;-63
2022/03/21 18:49:43;;;;;;;25.05;12.35;;;;;;;;;;5091400;28;20023;-65
2022/03/21 18:52:09;;;;;;;31.95;14.40;;;;;;;;;;5090976;28;20024;-63
2022/03/21 18:54:35;;;;;;;22.25;11.65;;;;;;;;;;5091302;28;20021;-64
2022/03/21 18:57:01;;;;;;;35.65;17.33;;;;;;;;;;5091020;28;20465;-64
2022/03/21 18:59:26;;;;;;;30.23;13.85;;;;;;;;;;5091312;28;20107;-65
2022/03/21 19:01:54;;;;;;;32.15;14.68;;;;;;;;;;5091317;28;20077;-64
2022/03/21 19:04:20;;;;;;;33.65;15.48;;;;;;;;;;5091193;28;20035;-64
2022/03/21 19:06:47;;;;;;;31.50;14.10;;;;;;;;;;5082275;28;20438;-64
2022/03/21 19:09:13;;;;;;;24.38;12.60;;;;;;;;;;5087445;28;20036;-63
2022/03/21 19:11:39;;;;;;;22.60;11.63;;;;;;;;;;5091967;28;20080;-63
2022/03/21 19:14:04;;;;;;;24.35;12.38;;;;;;;;;;5094892;28;20024;-64
2022/03/21 19:16:31;;;;;;;24.25;12.20;;;;;;;;;;5095410;28;20032;-63
2022/03/21 19:18:57;;;;;;;23.55;12.15;;;;;;;;;;5095404;28;20039;-62
2022/03/21 19:21:23;;;;;;;31.77;14.18;;;;;;;;;;5094938;28;20028;-64
2022/03/21 19:23:49;;;;;;;29.05;13.50;;;;;;;;;;5095228;28;20020;-62
2022/03/21 19:26:14;;;;;;;26.42;13.85;;;;;;;;;;5094802;28;20443;-62
2022/03/21 19:28:40;;;;;;;25.02;13.43;;;;;;;;;;5095049;28;20113;-63
2022/03/21 19:31:05;;;;;;;23.30;10.75;;;;;;;;;;5094911;28;20384;-62
2022/03/21 19:33:31;;;;;;;30.23;12.50;;;;;;;;;;5094852;28;20056;-63
2022/03/21 19:35:57;;;;;;;27.65;13.55;;;;;;;;;;5094717;28;20039;-63
2022/03/21 19:38:26;;;;;;;22.42;12.23;;;;;;;;;;5094978;28;20028;-62
2022/03/21 19:40:54;;;;;;;24.63;12.98;;;;;;;;;;5095106;28;20032;-62
2022/03/21 19:43:19;;;;;;;28.40;14.32;;;;;;;;;;5094811;28;20355;-61
2022/03/21 19:45:47;;;;;;;21.58;10.10;;;;;;;;;;5094660;28;20544;-62
2022/03/21 19:48:13;;;;;;;25.80;11.95;;;;;;;;;;5094496;28;20025;-61
2022/03/21 19:50:39;;;;;;;22.35;11.55;;;;;;;;;;5094360;28;20069;-61
2022/03/21 19:53:04;;;;;;;25.15;11.90;;;;;;;;;;5094486;28;20452;-61
2022/03/21 19:55:34;;;;;;;25.80;12.38;;;;;;;;;;5094632;28;20035;-61
2022/03/21 19:58:00;;;;;;;28.38;12.80;;;;;;;;;;5094503;28;20484;-61
2022/03/21 20:00:27;;;;;;;25.58;12.65;;;;;;;;;;5094411;28;20036;-60
2022/03/21 20:02:53;;;;;;;29.98;13.25;;;;;;;;;;5094319;28;20024;-62
2022/03/21 20:05:20;;;;;;;32.30;15.25;;;;;;;;;;5093972;28;20032;-65
2022/03/21 20:07:46;;;;;;;31.88;14.38;;;;;;;;;;5094320;28;20032;-61
2022/03/21 20:10:16;;;;;;;35.60;14.45;;;;;;;;;;5094047;28;20032;-62
2022/03/21 20:12:43;;;;;;;25.90;13.38;;;;;;;;;;5094090;28;20110;-61
2022/03/21 20:15:10;;;;;;;28.60;13.70;;;;;;;;;;5093954;28;20024;-62
2022/03/21 20:17:36;;;;;;;24.33;12.27;;;;;;;;;;5094210;28;20020;-61
2022/03/21 20:20:03;;;;;;;26.52;13.13;;;;;;;;;;5093542;28;20035;-61
2022/03/21 20:22:28;;;;;;;22.73;12.00;;;;;;;;;;5093986;28;20434;-61
2022/03/21 20:24:54;;;;;;;20.08;10.95;;;;;;;;;;5093897;28;20048;-62
2022/03/21 20:27:19;;;;;;;16.67;8.57;;;;;;;;;;5093823;28;20039;-61
2022/03/21 20:29:46;;;;;;;20.92;9.75;;;;;;;;;;5093931;28;20435;-61
2022/03/21 20:32:11;;;;;;;22.33;11.00;;;;;;;;;;5093840;28;20027;-61
2022/03/21 20:34:38;;;;;;;22.05;10.35;;;;;;;;;;5093790;28;20392;-61
2022/03/21 20:37:05;;;;;;;24.50;12.25;;;;;;;;;;5093601;28;20073;-61
2022/03/21 20:39:31;;;;;;;28.65;11.30;;;;;;;;;;5093697;28;20163;-64
2022/03/21 20:41:56;;;;;;;23.52;11.93;;;;;;;;;;5093383;28;20032;-61
2022/03/21 20:44:22;;;;;;;27.73;12.43;;;;;;;;;;5093668;28;20028;-61
2022/03/21 20:46:47;;;;;;;22.30;12.20;;;;;;;;;;5093602;28;20043;-62
2022/03/21 20:49:14;;;;;;;29.05;14.52;;;;;;;;;;5093028;28;20107;-62
2022/03/21 20:51:39;;;;;;;36.22;16.13;;;;;;;;;;5093429;28;20396;-61
2022/03/21 20:54:05;;;;;;;44.58;18.63;;;;;;;;;;5093312;28;20078;-64
2022/03/21 20:56:31;;;;;;;54.28;23.17;;;;;;;;;;5093031;28;20036;-64
2022/03/21 20:58:57;;;;;;;119.22;33.65;;;;;;;;;;5092719;28;20015;-63
2022/03/21 21:01:23;;;;;;;119.68;34.33;;;;;;;;;;5092887;28;20026;-64
2022/03/21 21:03:50;;;;;;;114.38;34.88;;;;;;;;;;5092516;28;20487;-64
2022/03/21 21:06:18;;;;;;;94.50;33.10;;;;;;;;;;5092493;28;20059;-65
2022/03/21 21:08:44;;;;;;;96.15;31.65;;;;;;;;;;5092635;28;20024;-64
2022/03/21 21:11:12;;;;;;;64.53;25.23;;;;;;;;;;5091487;28;20052;-64
2022/03/21 21:13:38;;;;;;;94.75;30.45;;;;;;;;;;5093305;28;20481;-62
2022/03/21 21:16:05;;;;;;;63.53;23.20;;;;;;;;;;5094642;28;20016;-64
2022/03/21 21:18:30;;;;;;;66.13;23.65;;;;;;;;;;5096360;28;20028;-64
2022/03/21 21:20:56;;;;;;;64.43;24.27;;;;;;;;;;5095097;28;20127;-61
2022/03/21 21:23:24;;;;;;;65.63;24.15;;;;;;;;;;5094670;28;20028;-62
2022/03/21 21:25:50;;;;;;;67.90;24.00;;;;;;;;;;5094545;28;20136;-62
2022/03/21 21:28:17;;;;;;;59.05;22.42;;;;;;;;;;5094732;28;20078;-60
2022/03/21 21:30:42;;;;;;;72.05;23.65;;;;;;;;;;5097257;28;20020;-61
2022/03/21 21:33:08;;;;;;;43.42;17.50;;;;;;;;;;5094278;28;20027;-61
2022/03/21 21:35:36;;;;;;;37.67;15.82;;;;;;;;;;5093957;28;20024;-63
2022/03/21 21:38:02;;;;;;;27.92;13.50;;;;;;;;;;5091799;28;20020;-63
2022/03/21 21:40:28;;;;;;;32.65;15.02;;;;;;;;;;5095689;28;20031;-62
2022/03/21 21:42:54;;;;;;;33.80;14.20;;;;;;;;;;5095462;28;20019;-63
2022/03/21 21:45:24;;;;;;;25.00;13.07;;;;;;;;;;5093571;28;20476;-61
2022/03/21 21:47:53;;;;;;;28.98;13.43;;;;;;;;;;5093426;28;20024;-61
2022/03/21 21:50:20;;;;;;;27.65;13.07;;;;;;;;;;5092832;28;20028;-63
2022/03/21 21:52:47;;;;;;;31.52;13.68;;;;;;;;;;5092916;28;20027;-61
2022/03/21 21:55:16;;;;;;;27.73;13.07;;;;;;;;;;5091812;28;20027;-62
2022/03/21 21:57:43;;;;;;;33.35;14.90;;;;;;;;;;5091702;28;20035;-64
2022/03/21 22:00:12;;;;;;;27.90;13.18;;;;;;;;;;5091791;28;20024;-61
2022/03/21 22:02:38;;;;;;;34.47;15.95;;;;;;;;;;5091729;28;20046;-60
2022/03/21 22:05:05;;;;;;;35.80;14.50;;;;;;;;;;5092930;28;20036;-65
2022/03/21 22:07:30;;;;;;;36.53;15.30;;;;;;;;;;5091777;28;20027;-63
2022/03/21 22:09:56;;;;;;;34.80;15.00;;;;;;;;;;5092718;28;20032;-60
2022/03/21 22:12:22;;;;;;;34.88;15.57;;;;;;;;;;5093244;28;20114;-60
2022/03/21 22:14:52;;;;;;;53.78;18.95;;;;;;;;;;5090074;28;20461;-60
2022/03/21 22:17:22;;;;;;;49.22;17.67;;;;;;;;;;5093852;28;20024;-60
2022/03/21 22:19:48;;;;;;;42.20;17.70;;;;;;;;;;5091844;28;20473;-59
2022/03/21 22:22:14;;;;;;;32.42;14.60;;;;;;;;;;5091881;28;20039;-59
2022/03/21 22:24:40;;;;;;;48.10;19.38;;;;;;;;;;5091256;28;20048;-59
2022/03/21 22:27:06;;;;;;;52.85;21.23;;;;;;;;;;5091954;28;20370;-60
2022/03/21 22:29:31;;;;;;;48.15;21.75;;;;;;;;;;5091587;28;20032;-59
2022/03/21 22:31:57;;;;;;;58.45;24.25;;;;;;;;;;5091774;28;20032;-60
2022/03/21 22:34:23;;;;;;;51.60;22.45;;;;;;;;;;5092049;28;20526;-61
2022/03/21 22:36:50;;;;;;;65.63;26.55;;;;;;;;;;5091741;28;20032;-62
2022/03/21 22:39:16;;;;;;;62.78;25.35;;;;;;;;;;5091820;28;20074;-63
2022/03/21 22:47:14;;;;;;;60.35;25.05;;;;;;;;;;5093749;28;20131;-63
2022/03/21 22:49:53;;;;;;;63.15;24.38;;;;;;;;;;5095580;28;20035;-62
2022/03/21 22:52:21;;;;;;;69.38;24.20;;;;;;;;;;5096089;28;20032;-61
2022/03/21 22:54:47;;;;;;;67.63;23.92;;;;;;;;;;5095217;28;20414;-62
2022/03/21 22:57:17;;;;;;;70.82;24.10;;;;;;;;;;5095458;28;20024;-62
2022/03/21 22:59:43;;;;;;;60.25;22.77;;;;;;;;;;5093984;28;20066;-61
2022/03/21 23:02:09;;;;;;;68.47;25.67;;;;;;;;;;5095667;28;20492;-62
2022/03/21 23:04:34;;;;;;;74.78;25.00;;;;;;;;;;5095320;28;20024;-61
2022/03/21 23:07:01;;;;;;;75.93;25.48;;;;;;;;;;5095525;28;20024;-62
2022/03/21 23:09:27;;;;;;;82.30;25.05;;;;;;;;;;5095299;28;20028;-62
2022/03/21 23:11:58;;;;;;;71.80;24.08;;;;;;;;;;5095089;28;20473;-61
2022/03/21 23:14:27;;;;;;;69.93;23.50;;;;;;;;;;5095539;28;20491;-62
2022/03/21 23:16:53;;;;;;;77.75;26.27;;;;;;;;;;5087285;28;20024;-61
2022/03/21 23:19:19;;;;;;;86.82;26.73;;;;;;;;;;5095368;28;20487;-62
2022/03/21 23:21:45;;;;;;;80.88;26.65;;;;;;;;;;5094904;28;20024;-63
2022/03/21 23:24:11;;;;;;;92.88;28.75;;;;;;;;;;5095271;28;20030;-62
2022/03/21 23:26:36;;;;;;;100.28;29.50;;;;;;;;;;5094615;28;20036;-60
2022/03/21 23:29:02;;;;;;;85.03;28.25;;;;;;;;;;5095112;28;20100;-62
2022/03/21 23:31:28;;;;;;;77.72;24.25;;;;;;;;;;5095036;28;20381;-61
2022/03/21 23:33:53;;;;;;;83.80;27.58;;;;;;;;;;5095013;28;20020;-61
2022/03/21 23:36:19;;;;;;;91.28;27.08;;;;;;;;;;5095097;28;20385;-61
2022/03/21 23:38:45;;;;;;;80.72;25.40;;;;;;;;;;5094768;28;20393;-60
2022/03/21 23:43:55;;;;;;;75.90;25.10;;;;;;;;;;5087192;28;20035;-63
2022/03/21 23:46:20;;;;;;;98.45;28.83;;;;;;;;;;5094811;28;20393;-63
2022/03/21 23:48:47;;;;;;;94.13;27.77;;;;;;;;;;5094423;28;20032;-63
2022/03/21 23:51:12;;;;;;;71.53;25.40;;;;;;;;;;5094805;28;20361;-63
2022/03/21 23:53:38;;;;;;;74.38;24.27;;;;;;;;;;5094192;28;20089;-64
2022/03/21 23:56:04;;;;;;;74.93;25.48;;;;;;;;;;5094424;28;20028;-63
2022/03/21 23:58:30;;;;;;;70.82;24.83;;;;;;;;;;5093892;28;20024;-63
